createdAt,value
2023-06-19T00:02:14.438Z,21.26
2023-06-19T00:04:41.643Z,21.31
2023-06-19T00:07:08.670Z,21.34
2023-06-19T00:09:35.836Z,21.31
2023-06-19T00:12:03.420Z,21.31
2023-06-19T00:14:30.582Z,21.07
2023-06-19T00:16:57.715Z,21.28
2023-06-19T00:19:24.968Z,21.26
2023-06-19T00:21:52.090Z,21.26
2023-06-19T00:24:19.241Z,21.16
2023-06-19T00:26:46.523Z,21.29
2023-06-19T00:29:13.678Z,21.20
2023-06-19T00:31:40.873Z,21.02
2023-06-19T00:34:09.364Z,21.11
2023-06-19T00:36:41.966Z,20.91
2023-06-19T00:39:09.784Z,21.25
2023-06-19T00:41:37.466Z,21.22
2023-06-19T00:44:05.263Z,21.08
2023-06-19T00:46:33.000Z,21.05
2023-06-19T00:49:00.419Z,21.15
2023-06-19T00:51:27.613Z,21.13
2023-06-19T00:53:54.934Z,20.52
2023-06-19T00:56:22.187Z,20.17
2023-06-19T00:58:53.035Z,20.82
2023-06-19T01:01:22.266Z,20.67
2023-06-19T01:03:49.592Z,20.95
2023-06-19T01:06:29.298Z,20.84
2023-06-19T01:09:07.034Z,20.84
2023-06-19T01:11:45.822Z,20.69
2023-06-19T01:14:22.613Z,20.77
2023-06-19T01:16:50.398Z,20.52
2023-06-19T01:19:21.581Z,20.87
2023-06-19T01:21:50.740Z,20.07
2023-06-19T01:24:17.848Z,20.64
2023-06-19T01:26:48.605Z,20.62
2023-06-19T01:29:19.215Z,20.87
2023-06-19T01:32:16.638Z,20.77
2023-06-19T01:34:44.221Z,20.60
2023-06-19T01:37:11.981Z,20.57
2023-06-19T01:39:40.306Z,20.70
2023-06-19T01:42:10.596Z,20.70
2023-06-19T01:44:38.011Z,20.75
2023-06-19T01:47:12.907Z,20.69
2023-06-19T01:49:42.417Z,20.59
2023-06-19T01:52:10.055Z,20.48
2023-06-19T01:54:37.165Z,20.56
2023-06-19T01:57:04.585Z,20.64
2023-06-19T01:59:31.798Z,20.54
2023-06-19T02:01:59.031Z,20.67
2023-06-19T02:04:26.208Z,20.68
2023-06-19T02:06:53.328Z,19.93
2023-06-19T02:09:22.391Z,20.49
2023-06-19T02:11:49.440Z,20.38
2023-06-19T02:14:16.869Z,20.67
2023-06-19T02:16:44.833Z,20.43
2023-06-19T02:19:12.400Z,19.96
2023-06-19T02:21:40.324Z,20.75
2023-06-19T02:24:07.582Z,20.74
2023-06-19T02:26:34.786Z,20.67
2023-06-19T02:29:01.933Z,20.56
2023-06-19T02:31:29.187Z,20.61
2023-06-19T02:33:56.431Z,20.54
2023-06-19T02:36:23.646Z,20.44
2023-06-19T02:38:50.867Z,20.38
2023-06-19T02:41:19.752Z,20.51
2023-06-19T02:43:50.860Z,20.50
2023-06-19T02:46:18.098Z,19.80
2023-06-19T02:48:45.322Z,20.34
2023-06-19T02:51:12.584Z,20.50
2023-06-19T02:53:39.813Z,20.33
2023-06-19T02:56:08.887Z,20.14
2023-06-19T02:58:35.993Z,20.30
2023-06-19T03:01:03.241Z,20.49
2023-06-19T03:03:30.995Z,20.50
2023-06-19T03:05:58.205Z,20.57
2023-06-19T03:08:25.391Z,20.43
2023-06-19T03:10:52.595Z,20.58
2023-06-19T03:13:20.712Z,20.51
2023-06-19T03:15:47.765Z,20.63
2023-06-19T03:18:15.191Z,19.81
2023-06-19T03:20:42.392Z,20.49
2023-06-19T03:23:09.593Z,20.62
2023-06-19T03:25:37.250Z,20.45
2023-06-19T03:28:05.769Z,20.48
2023-06-19T03:30:33.956Z,20.48
2023-06-19T03:33:01.156Z,20.45
2023-06-19T03:35:43.432Z,20.58
2023-06-19T03:38:18.901Z,20.64
2023-06-19T03:40:46.193Z,20.63
2023-06-19T03:43:13.896Z,20.62
2023-06-19T03:45:42.187Z,20.53
2023-06-19T03:48:09.320Z,20.63
2023-06-19T03:50:36.788Z,19.99
2023-06-19T03:53:04.592Z,20.27
2023-06-19T03:55:31.799Z,20.67
2023-06-19T03:57:59.026Z,20.52
2023-06-19T04:00:26.532Z,20.72
2023-06-19T04:02:54.135Z,20.76
2023-06-19T04:05:21.618Z,20.60
2023-06-19T04:07:49.778Z,20.11
2023-06-19T04:10:17.245Z,20.80
2023-06-19T04:12:46.493Z,20.84
2023-06-19T04:15:13.786Z,20.80
2023-06-19T04:17:41.201Z,20.76
2023-06-19T04:20:13.368Z,20.72
2023-06-19T04:22:41.791Z,20.63
2023-06-19T04:25:10.062Z,20.69
2023-06-19T04:27:37.214Z,20.51
2023-06-19T04:30:05.733Z,20.70
2023-06-19T04:32:33.241Z,20.52
2023-06-19T04:35:00.660Z,20.51
2023-06-19T04:37:27.930Z,20.37
2023-06-19T04:39:55.327Z,20.33
2023-06-19T04:42:22.586Z,20.54
2023-06-19T04:44:50.200Z,20.64
2023-06-19T04:47:26.766Z,20.39
2023-06-19T04:49:58.198Z,20.51
2023-06-19T04:52:25.285Z,20.71
2023-06-19T04:54:52.434Z,20.75
2023-06-19T04:57:19.608Z,20.80
2023-06-19T04:59:46.860Z,20.80
2023-06-19T05:02:14.073Z,20.80
2023-06-19T05:04:44.284Z,20.83
2023-06-19T05:07:14.011Z,20.61
2023-06-19T05:09:41.084Z,20.53
2023-06-19T05:12:08.567Z,20.70
2023-06-19T05:14:35.609Z,21.00
2023-06-19T05:17:02.760Z,20.67
2023-06-19T05:19:29.937Z,20.83
2023-06-19T05:21:57.174Z,21.27
2023-06-19T05:24:25.209Z,21.33
2023-06-19T05:26:52.408Z,21.40
2023-06-19T05:29:19.537Z,21.51
2023-06-19T05:31:46.582Z,21.37
2023-06-19T05:34:13.698Z,21.69
2023-06-19T05:36:40.818Z,21.93
2023-06-19T05:39:08.086Z,21.96
2023-06-19T05:41:35.326Z,22.01
2023-06-19T05:44:02.916Z,21.76
2023-06-19T05:46:30.024Z,21.49
2023-06-19T05:48:57.311Z,22.29
2023-06-19T05:51:24.433Z,22.25
2023-06-19T05:53:53.354Z,22.41
2023-06-19T05:56:20.603Z,22.41
2023-06-19T05:58:47.679Z,22.54
2023-06-19T06:01:15.139Z,22.53
2023-06-19T06:03:42.230Z,22.65
2023-06-19T06:06:09.471Z,22.76
2023-06-19T06:08:37.159Z,22.64
2023-06-19T06:11:04.422Z,22.97
2023-06-19T06:13:31.549Z,22.98
2023-06-19T06:15:58.688Z,23.05
2023-06-19T06:18:25.870Z,23.13
2023-06-19T06:20:53.052Z,23.22
2023-06-19T06:23:20.138Z,23.25
2023-06-19T06:25:47.297Z,23.23
2023-06-19T06:28:14.435Z,23.08
2023-06-19T06:30:41.709Z,22.93
2023-06-19T06:33:09.001Z,23.46
2023-06-19T06:35:37.104Z,23.65
2023-06-19T06:38:04.167Z,23.67
2023-06-19T06:40:31.343Z,23.78
2023-06-19T06:42:58.588Z,23.81
2023-06-19T06:45:27.928Z,23.87
2023-06-19T06:47:55.518Z,23.92
2023-06-19T06:50:22.955Z,23.73
2023-06-19T06:52:50.384Z,23.89
2023-06-19T06:55:17.598Z,23.99
2023-06-19T06:57:44.655Z,24.03
2023-06-19T07:00:12.669Z,24.24
2023-06-19T07:02:41.482Z,24.26
2023-06-19T07:05:10.191Z,24.37
2023-06-19T07:07:37.667Z,24.31
2023-06-19T07:10:05.290Z,24.40
2023-06-19T07:12:32.440Z,24.27
2023-06-19T07:14:59.574Z,24.66
2023-06-19T07:17:26.837Z,24.68
2023-06-19T07:19:53.978Z,24.80
2023-06-19T07:22:21.110Z,24.89
2023-06-19T07:24:48.383Z,24.84
2023-06-19T07:27:15.464Z,25.16
2023-06-19T07:29:42.577Z,24.34
2023-06-19T07:32:09.791Z,25.32
2023-06-19T07:34:37.064Z,25.28
2023-06-19T07:37:04.527Z,25.46
2023-06-19T07:39:32.461Z,25.50
2023-06-19T07:41:59.660Z,25.68
2023-06-19T07:44:26.752Z,25.51
2023-06-19T07:46:53.841Z,25.81
2023-06-19T07:49:20.933Z,25.74
2023-06-19T07:51:48.124Z,25.95
2023-06-19T07:54:15.276Z,25.78
2023-06-19T07:56:42.714Z,26.10
2023-06-19T07:59:09.888Z,25.95
2023-06-19T08:01:37.082Z,26.05
2023-06-19T08:04:04.354Z,26.04
2023-06-19T08:06:31.462Z,26.24
2023-06-19T08:08:58.622Z,26.32
2023-06-19T08:11:25.717Z,26.36
2023-06-19T08:13:53.138Z,26.40
2023-06-19T08:16:20.543Z,26.49
2023-06-19T08:18:47.878Z,26.56
2023-06-19T08:21:15.213Z,26.73
2023-06-19T08:23:44.988Z,26.34
2023-06-19T08:26:12.432Z,26.84
2023-06-19T08:28:41.519Z,26.89
2023-06-19T08:31:09.213Z,26.96
2023-06-19T08:33:39.184Z,26.97
2023-06-19T08:36:06.631Z,27.25
2023-06-19T08:38:33.839Z,27.24
2023-06-19T08:41:01.093Z,27.44
2023-06-19T08:43:28.735Z,27.59
2023-06-19T08:46:11.211Z,26.79
2023-06-19T08:48:39.043Z,27.62
2023-06-19T08:51:06.894Z,27.64
2023-06-19T08:53:36.223Z,27.57
2023-06-19T08:56:05.588Z,27.62
2023-06-19T08:58:32.840Z,27.74
2023-06-19T09:01:00.581Z,27.86
2023-06-19T09:03:27.850Z,27.75
2023-06-19T09:05:55.291Z,27.90
2023-06-19T09:08:24.054Z,27.60
2023-06-19T09:10:57.840Z,28.05
2023-06-19T09:13:25.047Z,28.10
2023-06-19T09:16:03.821Z,27.97
2023-06-19T09:18:33.009Z,28.06
2023-06-19T09:21:00.409Z,28.03
2023-06-19T09:23:27.623Z,27.91
2023-06-19T09:25:59.461Z,28.14
2023-06-19T09:28:29.465Z,28.02
2023-06-19T09:31:04.076Z,28.02
2023-06-19T09:33:33.566Z,28.17
2023-06-19T09:36:03.164Z,28.31
2023-06-19T09:38:32.951Z,28.28
2023-06-19T09:41:03.613Z,28.41
2023-06-19T09:43:51.235Z,28.43
2023-06-19T09:46:20.885Z,28.25
2023-06-19T09:48:52.360Z,28.23
2023-06-19T09:51:22.462Z,28.37
2023-06-19T09:53:54.038Z,28.46
2023-06-19T09:56:25.621Z,28.40
2023-06-19T09:58:57.385Z,28.54
2023-06-19T10:01:25.614Z,28.70
2023-06-19T10:04:04.599Z,28.81
2023-06-19T10:06:33.135Z,28.87
2023-06-19T10:09:11.290Z,29.02
2023-06-19T10:11:54.192Z,29.03
2023-06-19T10:14:22.325Z,29.10
2023-06-19T10:16:50.365Z,28.89
2023-06-19T10:19:19.282Z,29.12
2023-06-19T10:21:51.385Z,29.00
2023-06-19T10:24:21.293Z,29.10
2023-06-19T10:27:02.833Z,29.22
2023-06-19T10:29:41.525Z,29.29
2023-06-19T10:32:11.393Z,29.39
2023-06-19T10:34:38.589Z,29.44
2023-06-19T10:37:06.194Z,29.53
2023-06-19T10:39:33.676Z,29.52
2023-06-19T10:42:00.825Z,29.53
2023-06-19T10:44:27.881Z,29.47
2023-06-19T10:46:55.053Z,29.70
2023-06-19T10:49:22.407Z,29.66
2023-06-19T10:51:50.015Z,29.66
2023-06-19T10:54:17.372Z,29.49
2023-06-19T10:56:44.728Z,29.57
2023-06-19T10:59:15.202Z,29.56
2023-06-19T11:01:45.831Z,29.70
2023-06-19T11:04:16.130Z,29.65
2023-06-19T11:06:46.555Z,29.37
2023-06-19T11:09:14.622Z,29.57
2023-06-19T11:11:49.528Z,29.40
2023-06-19T11:14:18.209Z,29.44
2023-06-19T11:16:49.411Z,29.59
2023-06-19T11:19:21.691Z,29.53
2023-06-19T11:21:52.088Z,29.63
2023-06-19T11:24:21.592Z,29.77
2023-06-19T11:26:51.271Z,29.92
2023-06-19T11:29:23.820Z,29.83
2023-06-19T11:31:51.767Z,29.45
2023-06-19T11:34:23.384Z,29.34
2023-06-19T11:36:52.219Z,29.77
2023-06-19T11:39:20.616Z,29.80
2023-06-19T11:41:48.417Z,29.76
2023-06-19T11:44:16.238Z,29.58
2023-06-19T11:46:44.067Z,29.65
2023-06-19T11:49:19.175Z,29.67
2023-06-19T11:51:48.100Z,29.73
2023-06-19T11:54:16.356Z,29.76
2023-06-19T11:56:43.547Z,29.64
2023-06-19T11:59:10.884Z,29.69
2023-06-19T12:01:38.599Z,29.66
2023-06-19T12:04:06.285Z,29.68
2023-06-19T12:06:34.010Z,29.84
2023-06-19T12:09:01.162Z,29.82
2023-06-19T12:11:28.436Z,29.96
2023-06-19T12:13:57.118Z,29.94
2023-06-19T12:16:24.356Z,29.80
2023-06-19T12:18:51.497Z,29.97
2023-06-19T12:21:34.178Z,30.09
2023-06-19T12:24:05.615Z,30.04
2023-06-19T12:26:37.667Z,30.19
2023-06-19T12:29:05.829Z,30.25
2023-06-19T12:31:33.626Z,30.33
2023-06-19T12:34:08.133Z,30.26
2023-06-19T12:36:38.118Z,30.13
2023-06-19T12:39:10.471Z,29.97
2023-06-19T12:41:37.992Z,30.03
2023-06-19T12:44:05.202Z,29.91
2023-06-19T12:46:33.673Z,29.90
2023-06-19T12:49:01.243Z,30.15
2023-06-19T12:51:28.377Z,30.20
2023-06-19T12:53:55.623Z,30.24
2023-06-19T12:56:22.955Z,30.20
2023-06-19T12:58:50.209Z,30.13
2023-06-19T13:01:17.829Z,30.13
2023-06-19T13:03:45.237Z,30.26
2023-06-19T13:06:12.624Z,29.68
2023-06-19T13:08:39.932Z,30.24
2023-06-19T13:11:07.049Z,30.29
2023-06-19T13:13:34.280Z,30.45
2023-06-19T13:16:01.579Z,30.43
2023-06-19T13:18:28.944Z,30.38
2023-06-19T13:20:56.467Z,30.34
2023-06-19T13:23:23.873Z,30.59
2023-06-19T13:25:51.292Z,30.56
2023-06-19T13:28:18.743Z,30.60
2023-06-19T13:30:45.937Z,30.68
2023-06-19T13:33:13.321Z,30.38
2023-06-19T13:35:40.420Z,30.34
2023-06-19T13:38:07.654Z,30.58
2023-06-19T13:40:34.965Z,30.50
2023-06-19T13:43:03.819Z,30.60
2023-06-19T13:45:31.990Z,30.51
2023-06-19T13:47:59.409Z,30.38
2023-06-19T13:50:26.754Z,30.45
2023-06-19T13:52:55.770Z,30.53
2023-06-19T13:55:24.208Z,30.68
2023-06-19T13:57:51.418Z,30.71
2023-06-19T14:00:19.650Z,30.78
2023-06-19T14:02:46.991Z,30.69
2023-06-19T14:05:17.009Z,30.48
2023-06-19T14:07:45.163Z,30.51
2023-06-19T14:10:12.329Z,30.86
2023-06-19T14:12:39.569Z,30.60
2023-06-19T14:15:08.591Z,30.73
2023-06-19T14:17:35.855Z,30.72
2023-06-19T14:20:05.623Z,30.63
2023-06-19T14:22:33.043Z,30.67
2023-06-19T14:25:03.046Z,30.71
2023-06-19T14:27:31.175Z,30.50
2023-06-19T14:29:58.569Z,30.79
2023-06-19T14:32:25.840Z,30.83
2023-06-19T14:34:53.267Z,30.85
2023-06-19T14:37:20.545Z,30.48
2023-06-19T14:39:48.025Z,30.64
2023-06-19T14:42:15.258Z,30.64
2023-06-19T14:44:42.411Z,30.21
2023-06-19T14:47:09.512Z,30.54
2023-06-19T14:49:36.652Z,30.56
2023-06-19T14:52:04.052Z,30.36
2023-06-19T14:54:31.174Z,30.55
2023-06-19T14:56:58.362Z,30.55
2023-06-19T14:59:25.927Z,30.65
2023-06-19T15:01:53.058Z,30.54
2023-06-19T15:04:20.457Z,30.22
2023-06-19T15:06:47.660Z,30.64
2023-06-19T15:09:14.972Z,30.58
2023-06-19T15:11:42.102Z,30.69
2023-06-19T15:14:09.672Z,30.68
2023-06-19T15:16:38.060Z,30.49
2023-06-19T15:19:05.737Z,30.41
2023-06-19T15:21:32.993Z,30.46
2023-06-19T15:24:00.227Z,30.43
2023-06-19T15:26:27.509Z,30.45
2023-06-19T15:28:54.933Z,30.43
2023-06-19T15:31:23.969Z,30.39
2023-06-19T15:33:51.766Z,30.43
2023-06-19T15:36:19.203Z,30.36
2023-06-19T15:38:46.743Z,29.91
2023-06-19T15:41:14.377Z,30.15
2023-06-19T15:44:08.478Z,30.25
2023-06-19T15:46:36.632Z,30.45
2023-06-19T15:49:05.677Z,29.78
2023-06-19T15:51:33.940Z,29.17
2023-06-19T15:54:02.807Z,30.43
2023-06-19T15:56:31.185Z,30.41
2023-06-19T15:59:02.931Z,30.28
2023-06-19T16:01:36.254Z,30.44
2023-06-19T16:04:09.913Z,29.68
2023-06-19T16:06:38.575Z,30.35
2023-06-19T16:09:08.238Z,29.44
2023-06-19T16:11:40.160Z,29.66
2023-06-19T16:14:12.712Z,30.28
2023-06-19T16:16:43.459Z,30.19
2023-06-19T16:19:10.817Z,30.35
2023-06-19T16:21:39.395Z,29.67
2023-06-19T16:24:07.603Z,29.14
2023-06-19T16:26:35.700Z,29.09
2023-06-19T16:29:04.522Z,29.04
2023-06-19T16:31:42.066Z,30.11
2023-06-19T16:34:10.072Z,30.09
2023-06-19T16:36:38.337Z,29.99
2023-06-19T16:39:07.296Z,29.58
2023-06-19T16:41:35.020Z,29.73
2023-06-19T16:44:03.610Z,29.80
2023-06-19T16:46:33.739Z,28.68
2023-06-19T16:49:14.523Z,29.17
2023-06-19T16:51:50.805Z,29.66
2023-06-19T16:54:20.154Z,29.38
2023-06-19T16:56:47.979Z,29.19
2023-06-19T16:59:18.680Z,29.00
2023-06-19T17:01:51.712Z,29.74
2023-06-19T17:04:19.744Z,29.78
2023-06-19T17:06:47.818Z,29.63
2023-06-19T17:09:15.280Z,29.51
2023-06-19T17:11:43.043Z,29.59
2023-06-19T17:14:10.256Z,29.58
2023-06-19T17:16:37.474Z,29.55
2023-06-19T17:19:06.744Z,29.41
2023-06-19T17:21:33.887Z,29.54
2023-06-19T17:24:01.204Z,29.40
2023-06-19T17:26:28.510Z,29.54
2023-06-19T17:28:55.675Z,29.19
2023-06-19T17:31:22.883Z,29.41
2023-06-19T17:33:50.098Z,29.45
2023-06-19T17:36:17.148Z,29.40
2023-06-19T17:38:44.412Z,29.34
2023-06-19T17:41:11.887Z,29.17
2023-06-19T17:43:39.064Z,29.14
2023-06-19T17:46:06.230Z,29.03
2023-06-19T17:48:33.359Z,29.04
2023-06-19T17:51:00.469Z,29.10
2023-06-19T17:53:27.609Z,28.91
2023-06-19T17:55:54.764Z,28.99
2023-06-19T17:58:22.938Z,28.82
2023-06-19T18:00:50.145Z,28.63
2023-06-19T18:03:17.354Z,28.75
2023-06-19T18:05:44.530Z,28.67
2023-06-19T18:08:11.733Z,28.36
2023-06-19T18:10:39.084Z,28.60
2023-06-19T18:13:06.312Z,28.54
2023-06-19T18:15:33.477Z,28.43
2023-06-19T18:18:00.670Z,28.42
2023-06-19T18:20:28.220Z,28.34
2023-06-19T18:22:55.688Z,28.25
2023-06-19T18:25:22.943Z,28.19
2023-06-19T18:27:50.168Z,28.09
2023-06-19T18:30:17.459Z,28.06
2023-06-19T18:32:44.626Z,28.01
2023-06-19T18:35:12.003Z,27.52
2023-06-19T18:37:39.527Z,27.77
2023-06-19T18:40:07.402Z,27.58
2023-06-19T18:42:35.219Z,27.73
2023-06-19T18:45:02.394Z,27.76
2023-06-19T18:47:29.441Z,27.73
2023-06-19T18:49:56.609Z,27.59
2023-06-19T18:52:24.201Z,27.54
2023-06-19T18:54:51.321Z,27.66
2023-06-19T18:57:18.512Z,27.67
2023-06-19T18:59:45.648Z,27.60
2023-06-19T19:02:12.893Z,27.07
2023-06-19T19:04:43.065Z,27.52
2023-06-19T19:07:10.199Z,27.32
2023-06-19T19:09:37.407Z,27.33
2023-06-19T19:12:05.337Z,27.14
2023-06-19T19:14:32.503Z,27.37
2023-06-19T19:16:59.683Z,27.32
2023-06-19T19:19:28.516Z,27.33
2023-06-19T19:21:55.902Z,27.36
2023-06-19T19:24:24.113Z,27.36
2023-06-19T19:26:51.558Z,27.08
2023-06-19T19:29:18.900Z,27.16
2023-06-19T19:31:46.165Z,27.05
2023-06-19T19:34:20.134Z,26.82
2023-06-19T19:36:48.432Z,26.79
2023-06-19T19:39:15.769Z,26.51
2023-06-19T19:41:45.256Z,26.36
2023-06-19T19:44:12.589Z,26.35
2023-06-19T19:46:41.105Z,26.43
2023-06-19T19:49:08.566Z,26.35
2023-06-19T19:51:36.212Z,26.16
2023-06-19T19:54:03.472Z,25.93
2023-06-19T19:56:30.653Z,26.22
2023-06-19T19:58:57.761Z,26.19
2023-06-19T20:01:24.841Z,26.04
2023-06-19T20:03:52.103Z,25.99
2023-06-19T20:06:19.296Z,25.92
2023-06-19T20:08:46.509Z,26.23
2023-06-19T20:11:13.762Z,26.19
2023-06-19T20:13:40.958Z,26.18
2023-06-19T20:16:11.553Z,26.15
2023-06-19T20:18:39.755Z,26.16
2023-06-19T20:21:07.242Z,26.04
2023-06-19T20:23:34.391Z,26.28
2023-06-19T20:26:01.822Z,26.21
2023-06-19T20:28:28.874Z,26.18
2023-06-19T20:30:56.037Z,26.13
2023-06-19T20:33:23.434Z,26.12
2023-06-19T20:35:51.302Z,26.04
2023-06-19T20:38:21.320Z,26.26
2023-06-19T20:40:49.203Z,26.27
2023-06-19T20:43:16.702Z,26.22
2023-06-19T20:45:43.758Z,26.42
2023-06-19T20:48:11.084Z,26.22
2023-06-19T20:50:38.293Z,26.21
2023-06-19T20:53:05.372Z,26.22
2023-06-19T20:55:32.486Z,26.04
2023-06-19T20:58:05.785Z,26.04
2023-06-19T21:00:33.750Z,25.97
2023-06-19T21:03:04.226Z,25.60
2023-06-19T21:05:31.727Z,25.59
2023-06-19T21:07:58.969Z,25.12
2023-06-19T21:10:26.309Z,25.01
2023-06-19T21:12:53.671Z,24.85
2023-06-19T21:15:20.754Z,24.90
2023-06-19T21:17:47.985Z,25.10
2023-06-19T21:20:15.133Z,24.94
2023-06-19T21:22:42.358Z,25.09
2023-06-19T21:25:09.921Z,25.04
2023-06-19T21:27:37.135Z,24.87
2023-06-19T21:30:05.533Z,25.17
2023-06-19T21:32:32.759Z,25.37
2023-06-19T21:34:59.935Z,25.39
2023-06-19T21:37:26.990Z,25.24
2023-06-19T21:39:54.150Z,25.42
2023-06-19T21:42:21.330Z,25.53
2023-06-19T21:44:48.564Z,25.11
2023-06-19T21:47:15.644Z,25.47
2023-06-19T21:49:42.817Z,25.56
2023-06-19T21:52:10.074Z,25.48
2023-06-19T21:54:37.144Z,25.37
2023-06-19T21:57:04.369Z,25.09
2023-06-19T21:59:31.464Z,25.21
2023-06-19T22:01:58.575Z,25.24
2023-06-19T22:04:25.798Z,25.18
2023-06-19T22:06:52.891Z,25.39
2023-06-19T22:09:20.091Z,25.18
2023-06-19T22:11:47.236Z,25.36
2023-06-19T22:14:14.409Z,25.03
2023-06-19T22:16:41.634Z,25.35
2023-06-19T22:19:11.720Z,25.35
2023-06-19T22:21:42.747Z,25.34
2023-06-19T22:24:13.194Z,25.16
2023-06-19T22:26:40.404Z,25.35
2023-06-19T22:29:07.657Z,25.29
2023-06-19T22:31:34.937Z,25.37
2023-06-19T22:34:02.220Z,25.26
2023-06-19T22:36:29.446Z,25.14
2023-06-19T22:38:56.647Z,24.97
2023-06-19T22:41:24.039Z,24.95
2023-06-19T22:43:51.159Z,24.85
2023-06-19T22:46:18.445Z,24.93
2023-06-19T22:48:51.636Z,24.97
2023-06-19T22:51:18.936Z,25.04
2023-06-19T22:53:46.019Z,25.03
2023-06-19T22:56:13.464Z,24.77
2023-06-19T22:58:43.957Z,24.77
2023-06-19T23:01:11.588Z,24.64
2023-06-19T23:03:43.813Z,25.02
2023-06-19T23:06:11.755Z,24.79
2023-06-19T23:08:41.610Z,24.86
2023-06-19T23:11:09.574Z,24.80
2023-06-19T23:13:39.310Z,24.77
2023-06-19T23:16:09.382Z,24.99
2023-06-19T23:18:37.508Z,24.75
2023-06-19T23:21:04.726Z,25.08
2023-06-19T23:23:32.481Z,25.06
2023-06-19T23:26:01.620Z,25.08
2023-06-19T23:28:32.630Z,24.86
2023-06-19T23:31:00.503Z,25.08
2023-06-19T23:33:27.924Z,24.96
2023-06-19T23:35:57.707Z,24.90
2023-06-19T23:38:25.904Z,24.82
2023-06-19T23:40:55.223Z,23.98
2023-06-19T23:43:22.340Z,24.72
2023-06-19T23:45:52.266Z,24.41
2023-06-19T23:48:19.656Z,24.45
2023-06-19T23:50:46.816Z,24.39
2023-06-19T23:53:14.024Z,24.02
2023-06-19T23:55:41.196Z,24.52
2023-06-19T23:58:09.485Z,23.89
